Time;durP1;ratioP1;P1;durP2;ratioP2;P2;SDS_P1;SDS_P2;PMS_P1;PMS_P2;Temp;Humidity;BMP_temperature;BMP_pressure;BME280_temperature;BME280_humidity;BME280_pressure;Samples;Min_cycle;Max_cycle;Signal;HPM_P1;HPM_P2
2022/04/22 00:02:16;;;;;;;12.27;6.82;;;10.60;96.80;;;;;;5026735;28;20088;-68
2022/04/22 00:04:42;;;;;;;12.00;7.15;;;10.50;97.20;;;;;;5023308;28;20482;-68
2022/04/22 00:07:07;;;;;;;11.55;6.93;;;10.50;97.60;;;;;;5024644;28;20034;-69
2022/04/22 00:09:33;;;;;;;11.85;6.47;;;10.40;98.00;;;;;;5023123;28;20095;-68
2022/04/22 00:12:00;;;;;;;11.07;6.75;;;10.40;98.20;;;;;;5018924;28;20476;-68
2022/04/22 00:14:25;;;;;;;12.57;6.68;;;10.30;98.50;;;;;;5027344;28;20042;-69
2022/04/22 00:16:51;;;;;;;11.63;7.05;;;10.40;99.10;;;;;;5027116;28;20063;-69
2022/04/22 00:19:17;;;;;;;13.18;7.53;;;10.30;99.40;;;;;;5007409;28;20141;-69
2022/04/22 00:21:43;;;;;;;12.95;7.28;;;10.30;99.90;;;;;;5023692;28;20038;-68
2022/04/22 00:24:09;;;;;;;10.02;6.63;;;10.30;99.60;;;;;;5025217;28;20393;-68
2022/04/22 00:26:35;;;;;;;11.70;7.05;;;10.20;99.90;;;;;;5026330;28;20054;-68
2022/04/22 00:29:01;;;;;;;13.27;8.02;;;10.20;99.90;;;;;;5025659;28;20058;-69
2022/04/22 00:31:26;;;;;;;10.85;7.15;;;10.10;99.90;;;;;;5026592;28;20037;-68
2022/04/22 00:33:52;;;;;;;11.55;7.35;;;10.20;99.90;;;;;;5007912;28;20796;-69
2022/04/22 00:36:18;;;;;;;12.30;7.97;;;10.00;99.90;;;;;;5024918;28;20046;-69
2022/04/22 00:38:46;;;;;;;14.02;7.13;;;10.10;99.90;;;;;;5023849;28;20056;-68
2022/04/22 00:41:12;;;;;;;11.10;7.22;;;10.10;99.90;;;;;;5025418;28;20046;-68
2022/04/22 00:43:44;;;;;;;14.70;7.07;;;10.10;99.90;;;;;;5024533;28;20044;-68
2022/04/22 00:46:10;;;;;;;13.63;7.75;;;10.00;99.90;;;;;;5023669;28;20375;-68
2022/04/22 00:48:36;;;;;;;12.15;7.97;;;10.00;99.90;;;;;;5007630;28;20061;-68
2022/04/22 00:51:06;;;;;;;13.18;8.05;;;10.00;99.90;;;;;;5023813;28;20070;-68
2022/04/22 00:53:35;;;;;;;11.38;7.88;;;10.00;99.90;;;;;;5040871;28;20053;-68
2022/04/22 00:56:06;;;;;;;12.63;7.80;;;10.00;99.90;;;;;;5026024;28;20042;-68
2022/04/22 00:58:34;;;;;;;15.93;7.90;;;9.90;99.90;;;;;;5024579;28;20056;-68
2022/04/22 01:01:00;;;;;;;13.80;8.65;;;9.90;99.90;;;;;;5026729;28;20039;-67
2022/04/22 01:03:26;;;;;;;14.30;8.40;;;9.90;99.90;;;;;;5007535;28;20064;-68
2022/04/22 01:11:21;;;;;;;13.27;8.45;;;9.80;99.90;;;;;;5024302;28;20413;-67
2022/04/22 01:13:47;;;;;;;12.50;8.80;;;9.80;99.90;;;;;;5025269;28;20049;-67
2022/04/22 01:16:12;;;;;;;15.57;9.27;;;9.70;99.90;;;;;;5026167;28;20508;-67
2022/04/22 01:18:38;;;;;;;14.57;10.23;;;9.70;99.90;;;;;;5024372;28;20389;-67
2022/04/22 01:21:04;;;;;;;12.88;9.38;;;9.70;99.90;;;;;;5023217;28;20033;-68
2022/04/22 01:23:31;;;;;;;19.45;9.77;;;9.60;99.90;;;;;;5022340;28;20073;-67
2022/04/22 01:25:57;;;;;;;18.40;9.98;;;9.60;99.90;;;;;;5022402;28;20047;-67
2022/04/22 01:28:27;;;;;;;17.00;9.93;;;9.60;99.90;;;;;;5023930;28;20053;-67
2022/04/22 01:30:59;;;;;;;21.08;10.95;;;9.60;99.90;;;;;;5025171;28;20045;-68
2022/04/22 01:33:25;;;;;;;15.02;9.65;;;9.50;99.90;;;;;;5023542;28;20108;-67
2022/04/22 01:35:51;;;;;;;17.45;10.80;;;9.50;99.90;;;;;;5022748;28;20501;-67
2022/04/22 01:38:17;;;;;;;20.33;11.50;;;9.50;99.90;;;;;;5025035;28;20053;-68
2022/04/22 01:40:43;;;;;;;15.65;10.60;;;9.50;99.90;;;;;;5008529;28;20472;-67
2022/04/22 01:43:09;;;;;;;15.55;10.05;;;9.40;99.90;;;;;;5009132;28;20081;-68
2022/04/22 01:45:34;;;;;;;17.58;11.55;;;9.40;99.90;;;;;;5024740;28;20054;-67
2022/04/22 01:48:00;;;;;;;14.52;10.75;;;9.40;99.90;;;;;;5024432;28;20025;-67
2022/04/22 01:50:26;;;;;;;15.65;10.68;;;9.40;99.90;;;;;;5025919;28;20079;-67
2022/04/22 01:52:52;;;;;;;20.70;11.32;;;9.30;99.90;;;;;;5022906;28;20068;-68
2022/04/22 01:55:18;;;;;;;18.52;11.52;;;9.30;99.90;;;;;;5025056;28;20243;-67
2022/04/22 01:57:44;;;;;;;16.13;11.00;;;9.30;99.90;;;;;;5023604;28;20068;-67
2022/04/22 02:00:10;;;;;;;19.98;11.13;;;9.30;99.90;;;;;;5025490;28;20087;-68
2022/04/22 02:02:36;;;;;;;14.65;10.82;;;9.30;99.90;;;;;;5023636;28;20124;-68
2022/04/22 02:05:03;;;;;;;15.43;11.00;;;9.30;99.90;;;;;;5021733;28;20052;-68
2022/04/22 02:07:29;;;;;;;14.35;10.05;;;9.20;99.90;;;;;;5023387;28;20517;-68
2022/04/22 02:09:55;;;;;;;15.88;10.13;;;9.10;99.90;;;;;;5024075;28;20034;-68
2022/04/22 02:12:20;;;;;;;14.63;10.73;;;9.10;99.90;;;;;;5037509;28;20046;-68
2022/04/22 02:14:46;;;;;;;15.13;10.50;;;9.10;99.90;;;;;;5024775;28;20456;-68
2022/04/22 02:17:12;;;;;;;15.93;10.40;;;9.10;99.90;;;;;;5025531;28;20041;-67
2022/04/22 02:19:38;;;;;;;15.02;9.80;;;8.90;99.90;;;;;;5023324;28;20191;-67
2022/04/22 02:22:04;;;;;;;16.75;10.63;;;8.90;99.90;;;;;;5025531;28;20025;-67
2022/04/22 02:24:29;;;;;;;15.25;10.80;;;8.80;99.90;;;;;;5023161;28;20505;-68
2022/04/22 02:29:40;;;;;;;17.45;10.23;;;8.70;99.90;;;;;;5024190;28;20052;-67
2022/04/22 02:32:06;;;;;;;19.35;10.68;;;8.70;99.90;;;;;;5024855;28;20132;-67
2022/04/22 02:34:32;;;;;;;16.98;11.00;;;8.70;99.90;;;;;;5024693;28;20497;-67
2022/04/22 02:36:57;;;;;;;16.63;10.32;;;8.60;99.90;;;;;;5021311;28;20041;-67
2022/04/22 02:39:23;;;;;;;17.40;10.45;;;8.60;99.90;;;;;;5023364;28;20049;-67
2022/04/22 02:47:17;;;;;;;16.07;10.17;;;8.50;99.90;;;;;;5024603;28;20045;-68
2022/04/22 02:49:44;;;;;;;13.30;9.27;;;8.50;99.90;;;;;;5022294;28;20303;-68
2022/04/22 02:52:11;;;;;;;17.52;10.43;;;8.40;99.90;;;;;;5021921;28;20050;-68
2022/04/22 02:54:36;;;;;;;14.57;10.25;;;8.50;99.90;;;;;;5038486;28;20061;-68
2022/04/22 02:57:02;;;;;;;17.40;9.95;;;8.40;99.90;;;;;;5024117;28;20037;-68
2022/04/22 02:59:30;;;;;;;13.95;9.75;;;8.40;99.90;;;;;;5022569;28;20041;-68
2022/04/22 03:01:56;;;;;;;17.42;10.88;;;8.50;99.90;;;;;;5028223;28;20111;-68
2022/04/22 03:04:22;;;;;;;18.88;8.88;;;8.30;99.90;;;;;;5027064;28;20120;-68
2022/04/22 03:06:48;;;;;;;17.13;10.18;;;8.40;99.90;;;;;;5026898;28;20124;-69
2022/04/22 03:09:13;;;;;;;13.93;8.68;;;8.30;99.90;;;;;;5025634;28;20045;-69
2022/04/22 03:11:39;;;;;;;11.55;8.48;;;8.30;99.90;;;;;;5028542;28;20048;-67
2022/04/22 03:14:05;;;;;;;15.20;8.95;;;8.30;99.90;;;;;;5025895;28;20496;-68
2022/04/22 03:16:32;;;;;;;14.02;9.00;;;8.30;99.90;;;;;;5024822;28;20120;-68
2022/04/22 03:18:58;;;;;;;13.35;8.30;;;8.30;99.90;;;;;;5028022;28;20046;-68
2022/04/22 03:21:24;;;;;;;13.48;8.15;;;8.20;99.90;;;;;;5028091;28;20116;-68
2022/04/22 03:23:50;;;;;;;13.80;8.18;;;8.20;99.90;;;;;;5027724;28;20077;-68
2022/04/22 03:26:16;;;;;;;14.68;8.50;;;8.20;99.90;;;;;;5003583;28;20045;-68
2022/04/22 03:28:42;;;;;;;12.57;7.40;;;8.20;99.90;;;;;;5026470;28;20406;-68
2022/04/22 03:31:08;;;;;;;14.07;8.02;;;8.20;99.90;;;;;;5025548;28;20045;-68
2022/04/22 03:33:34;;;;;;;13.40;8.25;;;8.10;99.90;;;;;;5025753;28;20092;-68
2022/04/22 03:35:59;;;;;;;9.48;7.63;;;8.10;99.90;;;;;;5023342;28;20495;-68
2022/04/22 03:38:27;;;;;;;17.77;7.50;;;8.10;99.90;;;;;;5026360;28;20627;-68
2022/04/22 03:40:53;;;;;;;13.98;7.35;;;8.10;99.90;;;;;;5024913;28;20370;-68
2022/04/22 03:43:22;;;;;;;10.98;7.10;;;8.00;99.90;;;;;;5029187;28;20033;-68
2022/04/22 03:45:48;;;;;;;12.00;6.72;;;8.10;99.90;;;;;;5027528;28;20392;-67
2022/04/22 03:48:14;;;;;;;11.82;7.05;;;8.00;99.90;;;;;;5030233;28;20041;-67
2022/04/22 03:50:41;;;;;;;9.65;5.85;;;7.90;99.90;;;;;;5031892;28;20045;-67
2022/04/22 03:53:10;;;;;;;10.23;6.40;;;8.00;99.90;;;;;;5030861;28;20491;-67
2022/04/22 03:55:35;;;;;;;12.70;6.80;;;8.00;99.90;;;;;;5031585;28;20128;-67
2022/04/22 03:58:10;;;;;;;10.35;6.95;;;7.90;99.90;;;;;;5031806;28;20117;-68
2022/04/22 04:00:56;;;;;;;;;;;7.90;99.90;;;;;;5032198;28;20124;-67
2022/04/22 04:03:23;;;;;;;11.38;6.28;;;7.90;99.90;;;;;;5027323;28;19921;-67
2022/04/22 04:05:51;;;;;;;8.65;5.85;;;7.80;99.90;;;;;;5031205;28;20036;-67
2022/04/22 04:08:20;;;;;;;10.32;6.03;;;7.90;99.90;;;;;;5030479;28;20473;-67
2022/04/22 04:16:15;;;;;;;7.47;5.72;;;7.60;99.90;;;;;;5030095;28;20103;-67
2022/04/22 04:18:41;;;;;;;11.25;5.55;;;7.60;99.90;;;;;;5031043;28;20049;-67
2022/04/22 04:23:54;;;;;;;9.32;6.00;;;7.60;99.90;;;;;;5031027;28;20148;-67
2022/04/22 04:26:24;;;;;;;7.93;5.53;;;7.60;99.90;;;;;;5031772;28;20033;-67
2022/04/22 04:28:51;;;;;;;9.15;5.72;;;7.60;99.90;;;;;;5029811;28;20114;-67
2022/04/22 04:31:17;;;;;;;8.70;5.20;;;7.70;99.90;;;;;;5029832;28;20057;-67
2022/04/22 04:33:43;;;;;;;10.40;5.28;;;7.70;99.90;;;;;;5030226;28;20033;-67
2022/04/22 04:36:10;;;;;;;9.88;5.30;;;7.70;99.90;;;;;;5031253;28;20473;-67
2022/04/22 04:38:40;;;;;;;7.43;5.03;;;7.70;99.90;;;;;;5029539;28;20057;-68
2022/04/22 04:41:08;;;;;;;9.70;5.75;;;7.70;99.90;;;;;;5029869;28;20041;-67
2022/04/22 04:43:40;;;;;;;10.07;5.10;;;7.70;99.90;;;;;;5030139;28;20056;-68
2022/04/22 04:46:06;;;;;;;9.80;5.00;;;7.70;99.90;;;;;;5029359;28;20053;-67
2022/04/22 04:48:34;;;;;;;9.05;5.20;;;7.70;99.90;;;;;;5012677;28;20068;-67
2022/04/22 04:51:00;;;;;;;7.15;4.95;;;7.60;99.90;;;;;;5031293;28;20038;-68
2022/04/22 04:53:26;;;;;;;9.25;5.50;;;7.70;99.90;;;;;;5027563;28;20049;-67
2022/04/22 04:55:53;;;;;;;9.38;5.15;;;7.60;99.90;;;;;;5030953;28;20501;-67
2022/04/22 04:58:20;;;;;;;9.82;5.05;;;7.60;99.90;;;;;;5030680;28;20041;-67
2022/04/22 05:00:46;;;;;;;8.25;5.10;;;7.60;99.90;;;;;;5029330;28;20076;-68
2022/04/22 05:03:12;;;;;;;9.07;5.20;;;7.60;99.90;;;;;;5028089;28;20079;-67
2022/04/22 05:05:38;;;;;;;9.55;4.63;;;7.60;99.90;;;;;;5030490;28;20029;-67
2022/04/22 05:08:05;;;;;;;8.68;4.63;;;7.60;99.90;;;;;;5029115;28;20073;-67
2022/04/22 05:10:32;;;;;;;8.70;4.32;;;7.60;99.90;;;;;;5029862;28;20040;-67
2022/04/22 05:12:59;;;;;;;10.27;4.43;;;7.70;99.90;;;;;;5025342;28;20133;-67
2022/04/22 05:15:26;;;;;;;8.43;4.80;;;7.70;99.90;;;;;;5029201;28;20129;-68
2022/04/22 05:17:53;;;;;;;7.97;5.15;;;7.70;99.90;;;;;;5028392;28;20119;-68
2022/04/22 05:20:20;;;;;;;9.52;4.78;;;7.70;99.90;;;;;;5030359;28;20037;-68
2022/04/22 05:22:47;;;;;;;7.85;4.50;;;7.80;99.90;;;;;;5028888;28;20091;-68
2022/04/22 05:25:14;;;;;;;8.27;4.25;;;7.90;99.90;;;;;;5028897;28;20030;-67
2022/04/22 05:27:40;;;;;;;7.78;4.90;;;8.00;99.90;;;;;;5028881;28;20083;-67
2022/04/22 05:32:53;;;;;;;7.38;4.53;;;8.00;99.90;;;;;;5029018;28;20049;-67
2022/04/22 05:35:22;;;;;;;6.65;4.50;;;8.10;99.90;;;;;;5011561;28;20041;-68
2022/04/22 05:37:53;;;;;;;8.88;4.53;;;8.20;99.90;;;;;;5026842;28;20046;-68
2022/04/22 05:40:21;;;;;;;9.27;4.35;;;8.40;99.90;;;;;;5028345;28;20132;-68
2022/04/22 05:42:48;;;;;;;8.32;4.45;;;8.60;99.90;;;;;;5029475;28;20053;-68
2022/04/22 05:45:15;;;;;;;5.78;4.30;;;8.80;99.90;;;;;;5030054;28;20056;-68
2022/04/22 05:47:41;;;;;;;8.18;4.38;;;8.90;99.90;;;;;;5029603;28;20497;-68
2022/04/22 05:50:12;;;;;;;6.85;4.47;;;9.00;99.90;;;;;;5030072;28;20133;-68
2022/04/22 05:52:38;;;;;;;8.55;4.32;;;9.20;99.90;;;;;;5025628;28;20147;-68
2022/04/22 05:55:16;;;;;;;7.40;4.85;;;9.20;99.90;;;;;;5009847;28;20076;-68
2022/04/22 05:57:43;;;;;;;6.07;4.22;;;9.10;99.90;;;;;;5024786;28;20037;-67
2022/04/22 06:00:12;;;;;;;5.13;3.28;;;9.00;99.90;;;;;;5025774;28;20053;-68
2022/04/22 06:02:42;;;;;;;10.02;4.07;;;9.00;99.90;;;;;;5026687;28;20040;-68
2022/04/22 06:05:09;;;;;;;5.28;3.75;;;8.90;99.90;;;;;;5028333;28;20128;-68
2022/04/22 06:07:36;;;;;;;7.65;4.20;;;9.00;99.90;;;;;;5028540;28;20155;-68
2022/04/22 06:12:48;;;;;;;6.35;4.00;;;9.20;99.90;;;;;;5027056;28;20064;-68
2022/04/22 06:15:14;;;;;;;5.80;3.67;;;9.20;99.70;;;;;;5027945;28;20053;-68
2022/04/22 06:17:39;;;;;;;6.78;4.10;;;9.20;99.10;;;;;;5029556;28;20056;-68
2022/04/22 06:20:06;;;;;;;6.53;4.20;;;9.20;99.00;;;;;;5028075;28;20196;-68
2022/04/22 06:22:32;;;;;;;6.60;3.60;;;9.30;98.80;;;;;;5028100;28;20140;-68
2022/04/22 06:24:58;;;;;;;6.72;3.63;;;9.30;98.90;;;;;;5028526;28;20134;-68
2022/04/22 06:27:25;;;;;;;5.63;3.70;;;9.40;98.60;;;;;;5025677;28;20087;-68
2022/04/22 06:29:53;;;;;;;4.82;3.63;;;9.50;97.90;;;;;;5028341;28;20062;-68
2022/04/22 06:32:21;;;;;;;6.95;3.75;;;9.40;97.40;;;;;;5029736;28;20057;-68
2022/04/22 06:34:47;;;;;;;6.05;3.72;;;9.50;97.80;;;;;;5022537;28;20062;-68
2022/04/22 06:37:14;;;;;;;5.47;3.78;;;9.60;97.90;;;;;;5027876;28;20049;-69
2022/04/22 06:47:55;;;;;;;6.15;3.78;;;9.90;96.40;;;;;;5030838;28;20104;-69
2022/04/22 06:50:21;;;;;;;6.90;3.88;;;10.00;95.50;;;;;;5031674;28;20065;-69
2022/04/22 06:52:47;;;;;;;6.40;3.47;;;9.90;95.90;;;;;;5034427;28;20068;-68
2022/04/22 06:55:17;;;;;;;6.35;4.03;;;10.00;96.00;;;;;;5032015;28;20041;-69
2022/04/22 06:57:46;;;;;;;4.32;3.33;;;10.20;95.30;;;;;;5031229;28;20083;-69
2022/04/22 07:00:13;;;;;;;6.80;3.20;;;10.20;95.30;;;;;;5030787;28;20049;-69
2022/04/22 07:02:39;;;;;;;5.32;3.33;;;10.50;95.30;;;;;;5030870;28;20045;-69
2022/04/22 07:05:05;;;;;;;5.32;3.40;;;10.80;95.30;;;;;;5032089;28;20056;-68
2022/04/22 07:07:31;;;;;;;6.18;3.92;;;10.90;93.70;;;;;;5031551;28;20404;-69
2022/04/22 07:09:57;;;;;;;6.18;3.53;;;11.00;93.40;;;;;;5031394;28;20077;-68
2022/04/22 07:12:27;;;;;;;6.35;3.40;;;11.00;93.10;;;;;;5031431;28;20048;-68
2022/04/22 07:15:03;;;;;;;5.22;3.72;;;11.30;92.70;;;;;;5031155;28;20124;-68
2022/04/22 07:17:35;;;;;;;5.22;2.97;;;11.60;92.30;;;;;;5031159;28;20091;-69
2022/04/22 07:20:05;;;;;;;5.78;3.42;;;11.80;90.80;;;;;;5030599;28;20054;-69
2022/04/22 07:22:32;;;;;;;6.47;3.45;;;11.90;91.60;;;;;;5030215;28;20133;-69
2022/04/22 07:24:58;;;;;;;6.10;3.28;;;12.00;90.60;;;;;;5031077;28;20100;-69
2022/04/22 07:27:28;;;;;;;4.72;3.10;;;12.20;90.10;;;;;;5031294;28;20049;-69
2022/04/22 07:29:55;;;;;;;11.65;3.90;;;12.60;87.20;;;;;;5028607;28;20060;-68
2022/04/22 07:32:21;;;;;;;4.72;2.95;;;12.90;85.80;;;;;;5032506;28;20052;-68
2022/04/22 07:34:47;;;;;;;8.05;3.70;;;13.00;86.00;;;;;;5030101;28;20054;-70
2022/04/22 07:37:13;;;;;;;7.68;3.30;;;13.30;82.80;;;;;;5032365;28;20052;-69
2022/04/22 07:39:39;;;;;;;12.88;3.50;;;13.20;81.90;;;;;;5030744;28;20053;-69
2022/04/22 07:42:21;;;;;;;6.90;3.13;;;13.00;83.60;;;;;;5031098;28;20079;-69
2022/04/22 07:47:36;;;;;;;11.88;3.55;;;13.60;81.40;;;;;;5028265;28;20480;-69
2022/04/22 07:50:06;;;;;;;5.25;2.58;;;13.80;81.00;;;;;;5030542;28;20587;-69
2022/04/22 07:52:33;;;;;;;5.22;2.35;;;14.00;78.10;;;;;;5029458;28;20107;-69
2022/04/22 07:54:59;;;;;;;4.32;2.65;;;14.30;77.50;;;;;;5045043;28;20053;-70
2022/04/22 07:57:27;;;;;;;6.18;2.47;;;14.60;75.20;;;;;;5014415;28;20235;-70
2022/04/22 07:59:52;;;;;;;5.78;2.60;;;14.50;72.00;;;;;;5029976;28;20083;-69
2022/04/22 08:02:18;;;;;;;3.72;2.63;;;14.50;73.50;;;;;;5030510;28;20115;-69
2022/04/22 08:04:44;;;;;;;3.70;2.50;;;15.00;74.30;;;;;;5031066;28;20033;-70
2022/04/22 08:07:10;;;;;;;4.53;2.25;;;15.00;72.40;;;;;;5031663;28;20075;-69
2022/04/22 08:09:36;;;;;;;4.70;2.10;;;15.20;72.70;;;;;;5029451;28;20136;-69
2022/04/22 08:12:02;;;;;;;3.83;2.03;;;15.60;71.00;;;;;;5030092;28;20088;-69
2022/04/22 08:14:28;;;;;;;4.68;1.88;;;15.80;68.50;;;;;;5029940;28;20033;-70
2022/04/22 08:16:56;;;;;;;4.38;1.90;;;15.90;68.40;;;;;;5031744;28;20116;-70
2022/04/22 08:19:22;;;;;;;4.85;1.92;;;16.20;67.40;;;;;;5027161;28;20076;-70
2022/04/22 08:21:48;;;;;;;3.45;1.80;;;16.60;67.10;;;;;;5029866;28;20092;-70
2022/04/22 08:24:13;;;;;;;3.58;1.52;;;16.50;64.80;;;;;;5029831;28;20115;-69
2022/04/22 08:26:39;;;;;;;2.25;1.50;;;16.60;64.40;;;;;;5030118;28;20406;-69
2022/04/22 08:29:05;;;;;;;3.40;1.90;;;16.70;64.40;;;;;;5029740;28;20049;-69
2022/04/22 08:31:31;;;;;;;2.97;1.40;;;16.50;62.20;;;;;;5013267;28;20126;-69
2022/04/22 08:33:57;;;;;;;2.75;1.27;;;16.40;62.50;;;;;;5030955;28;20045;-69
2022/04/22 08:36:24;;;;;;;3.00;1.75;;;16.80;62.70;;;;;;5030024;28;20053;-70
2022/04/22 08:38:50;;;;;;;5.97;1.65;;;17.00;61.80;;;;;;5031045;28;20061;-70
2022/04/22 08:41:17;;;;;;;3.40;1.10;;;17.20;63.10;;;;;;5031035;28;20421;-69
2022/04/22 08:43:43;;;;;;;5.85;1.70;;;16.90;61.20;;;;;;5031255;28;20108;-70
2022/04/22 08:51:40;;;;;;;3.08;1.52;;;17.40;58.70;;;;;;5026977;28;20085;-69
2022/04/22 08:54:08;;;;;;;3.72;1.45;;;17.60;58.90;;;;;;5028327;28;20053;-69
2022/04/22 08:56:35;;;;;;;5.78;1.00;;;17.60;57.80;;;;;;5029262;28;20041;-69
2022/04/22 08:59:02;;;;;;;4.00;1.40;;;17.50;57.60;;;;;;5030675;28;20046;-69
2022/04/22 09:01:28;;;;;;;2.45;1.00;;;17.20;58.00;;;;;;5027936;28;20053;-68
2022/04/22 09:03:53;;;;;;;2.60;1.20;;;17.60;57.90;;;;;;5028408;28;20046;-69
2022/04/22 09:06:22;;;;;;;3.67;1.42;;;17.60;57.50;;;;;;4997603;28;20046;-69
2022/04/22 09:08:50;;;;;;;5.88;1.13;;;17.70;58.10;;;;;;5029490;28;20049;-69
2022/04/22 09:11:16;;;;;;;6.40;1.42;;;18.00;57.30;;;;;;5028854;28;20046;-69
2022/04/22 09:13:42;;;;;;;5.18;1.38;;;17.80;56.40;;;;;;5028570;28;20528;-69
2022/04/22 09:16:09;;;;;;;2.20;1.20;;;17.50;57.10;;;;;;5030834;28;20045;-69
2022/04/22 09:18:37;;;;;;;4.43;1.58;;;17.70;57.80;;;;;;5027698;28;20079;-69
2022/04/22 09:21:06;;;;;;;3.00;1.70;;;17.90;58.10;;;;;;5027698;28;20053;-69
2022/04/22 09:23:36;;;;;;;3.50;1.60;;;18.30;58.10;;;;;;5028608;28;20578;-70
2022/04/22 09:26:04;;;;;;;4.20;1.58;;;18.40;57.70;;;;;;5028935;28;20056;-70
2022/04/22 09:28:32;;;;;;;3.42;1.50;;;18.50;57.50;;;;;;5030169;28;20481;-70
2022/04/22 09:31:02;;;;;;;5.22;1.58;;;18.50;54.50;;;;;;5025646;28;20132;-71
2022/04/22 09:33:45;;;;;;;2.78;1.55;;;18.40;55.00;;;;;;5028025;28;20062;-70
2022/04/22 09:44:56;;;;;;;2.65;1.40;;;18.00;53.10;;;;;;5029095;28;20431;-70
2022/04/22 09:47:32;;;;;;;4.57;1.50;;;17.80;53.30;;;;;;5028389;28;20033;-70
2022/04/22 09:49:59;;;;;;;4.47;1.40;;;17.90;53.00;;;;;;5026893;28;20501;-70
2022/04/22 09:52:29;;;;;;;3.40;1.23;;;18.10;52.40;;;;;;5027648;28;20071;-70
2022/04/22 09:54:57;;;;;;;3.40;1.63;;;18.30;54.90;;;;;;5029239;28;20033;-70
2022/04/22 09:57:23;;;;;;;2.85;1.13;;;18.30;53.80;;;;;;5028813;28;20064;-70
2022/04/22 09:59:51;;;;;;;5.80;1.50;;;18.30;54.10;;;;;;5028127;28;20117;-70
2022/04/22 10:02:21;;;;;;;3.88;1.40;;;18.40;53.40;;;;;;5012207;28;20088;-70
2022/04/22 10:04:49;;;;;;;3.42;1.25;;;18.30;51.50;;;;;;5027816;28;20056;-70
2022/04/22 10:07:17;;;;;;;3.53;1.45;;;18.50;51.90;;;;;;5028197;28;20134;-70
2022/04/22 10:09:45;;;;;;;3.65;1.92;;;18.50;52.70;;;;;;5027619;28;20053;-70
2022/04/22 10:12:15;;;;;;;2.05;1.35;;;18.60;51.90;;;;;;5029587;28;20351;-70
2022/04/22 10:14:42;;;;;;;4.82;1.27;;;18.50;54.30;;;;;;5029336;28;20133;-72
2022/04/22 10:17:11;;;;;;;4.40;1.55;;;18.30;52.30;;;;;;5032362;28;20107;-70
2022/04/22 10:19:37;;;;;;;3.97;1.92;;;18.10;53.80;;;;;;5031327;28;20060;-70
2022/04/22 10:22:04;;;;;;;4.40;1.85;;;18.40;53.60;;;;;;5015551;28;20076;-70
2022/04/22 10:24:33;;;;;;;5.65;2.10;;;18.20;53.10;;;;;;5033841;28;20036;-70
2022/04/22 10:27:02;;;;;;;4.13;1.50;;;18.50;54.30;;;;;;5029935;28;20477;-70
2022/04/22 10:29:29;;;;;;;7.57;1.83;;;18.80;52.60;;;;;;5031556;28;20071;-70
2022/04/22 10:31:56;;;;;;;4.72;1.60;;;18.80;52.00;;;;;;5030901;28;20304;-70
2022/04/22 10:34:39;;;;;;;3.88;1.77;;;18.90;52.50;;;;;;5032958;28;20060;-70
2022/04/22 10:37:15;;;;;;;2.80;1.73;;;19.20;51.40;;;;;;5033700;28;20091;-71
2022/04/22 10:39:40;;;;;;;3.15;1.63;;;18.80;51.00;;;;;;5015024;28;20041;-70
2022/04/22 10:42:15;;;;;;;3.05;1.75;;;18.70;52.80;;;;;;5032722;28;20049;-70
2022/04/22 10:47:41;;;;;;;5.60;2.25;;;18.40;52.20;;;;;;5031165;28;20056;-70
2022/04/22 10:50:42;;;;;;;5.70;1.70;;;18.30;53.70;;;;;;5032008;28;20053;-70
2022/04/22 10:53:09;;;;;;;5.95;2.42;;;18.60;53.10;;;;;;5004300;28;20057;-70
2022/04/22 10:55:36;;;;;;;5.03;2.10;;;18.80;53.20;;;;;;5031788;28;20126;-70
2022/04/22 10:58:23;;;;;;;4.10;1.92;;;18.70;50.70;;;;;;5031459;28;20049;-70
2022/04/22 11:00:51;;;;;;;3.03;1.77;;;18.40;51.60;;;;;;5030555;28;20054;-69
2022/04/22 11:03:36;;;;;;;2.95;1.73;;;18.40;52.50;;;;;;5030310;28;20064;-69
2022/04/22 11:06:05;;;;;;;4.13;1.85;;;18.90;53.40;;;;;;5030408;28;20389;-68
2022/04/22 11:08:41;;;;;;;4.00;1.98;;;19.20;52.70;;;;;;5031636;28;20086;-72
2022/04/22 11:11:18;;;;;;;3.58;1.80;;;19.30;51.10;;;;;;5032882;28;20528;-69
2022/04/22 11:13:50;;;;;;;5.82;2.15;;;19.00;50.90;;;;;;5031604;28;20063;-69
2022/04/22 11:16:39;;;;;;;3.63;2.50;;;19.20;52.90;;;;;;5029835;28;20052;-69
2022/04/22 11:19:24;;;;;;;2.85;1.60;;;19.20;52.40;;;;;;5030856;28;20061;-70
2022/04/22 11:21:52;;;;;;;;;;;19.50;52.30;;;;;;5032698;28;20037;-70
2022/04/22 11:24:32;;;;;;;5.72;2.40;;;19.70;51.50;;;;;;5015635;28;20256;-70
2022/04/22 11:27:13;;;;;;;5.82;2.15;;;19.80;51.30;;;;;;5028082;28;20121;-70
2022/04/22 11:29:40;;;;;;;3.55;2.28;;;19.70;49.60;;;;;;5030912;28;20128;-69
2022/04/22 11:32:21;;;;;;;3.53;2.25;;;19.40;51.00;;;;;;5031003;28;20390;-69
2022/04/22 11:35:11;;;;;;;5.40;2.50;;;19.50;51.90;;;;;;5030024;28;20065;-69
2022/04/22 11:37:37;;;;;;;3.60;2.20;;;19.80;51.60;;;;;;5031088;28;20507;-69
2022/04/22 11:40:08;;;;;;;4.65;2.65;;;19.90;51.00;;;;;;5032517;28;20140;-69
2022/04/22 11:42:43;;;;;;;5.60;2.28;;;20.00;50.30;;;;;;5029346;28;20473;-69
2022/04/22 11:45:14;;;;;;;10.07;2.47;;;20.30;49.50;;;;;;5030920;28;20140;-69
2022/04/22 11:47:41;;;;;;;6.10;2.55;;;20.00;49.00;;;;;;5030356;28;20049;-70
2022/04/22 11:50:08;;;;;;;6.45;2.83;;;19.90;50.80;;;;;;5030719;28;20073;-70
2022/04/22 11:52:33;;;;;;;4.15;2.17;;;19.90;50.30;;;;;;5030580;28;20107;-70
2022/04/22 11:55:03;;;;;;;5.65;2.50;;;20.20;51.20;;;;;;5030896;28;20053;-71
2022/04/22 11:57:33;;;;;;;5.03;2.88;;;20.00;49.20;;;;;;5030504;28;20046;-69
2022/04/22 12:05:35;;;;;;;4.30;2.28;;;19.80;50.30;;;;;;5031138;28;20099;-69
2022/04/22 12:08:07;;;;;;;4.78;2.38;;;20.10;48.80;;;;;;5031718;28;20025;-70
2022/04/22 12:10:33;;;;;;;6.82;2.70;;;20.30;48.60;;;;;;5030579;28;20053;-70
2022/04/22 12:13:04;;;;;;;3.92;2.28;;;20.20;48.90;;;;;;5031691;28;20642;-70
2022/04/22 12:15:30;;;;;;;5.78;2.30;;;20.10;49.60;;;;;;5031736;28;20099;-70
2022/04/22 12:17:57;;;;;;;4.75;2.63;;;20.20;50.00;;;;;;5030102;28;20053;-71
2022/04/22 12:20:25;;;;;;;5.90;2.40;;;20.60;49.10;;;;;;5013726;28;20049;-70
2022/04/22 12:22:52;;;;;;;3.90;2.42;;;20.80;47.70;;;;;;5028883;28;20050;-70
2022/04/22 12:25:20;;;;;;;8.65;2.75;;;20.90;48.20;;;;;;5030711;28;20107;-72
2022/04/22 12:28:07;;;;;;;5.82;2.58;;;20.80;47.60;;;;;;5031062;28;20049;-72
2022/04/22 12:30:38;;;;;;;7.10;2.80;;;20.40;48.30;;;;;;5028009;28;20441;-69
2022/04/22 12:33:05;;;;;;;9.52;2.90;;;20.30;49.30;;;;;;5030718;28;20465;-68
2022/04/22 12:35:31;;;;;;;7.43;2.78;;;20.20;49.20;;;;;;5030465;28;20056;-68
2022/04/22 12:37:57;;;;;;;4.47;3.00;;;20.30;49.70;;;;;;5030908;28;20052;-69
2022/04/22 12:40:23;;;;;;;3.75;2.78;;;20.50;48.30;;;;;;5029623;28;20579;-71
2022/04/22 12:42:50;;;;;;;3.65;2.63;;;20.10;48.30;;;;;;5029891;28;20836;-69
2022/04/22 12:53:50;;;;;;;8.23;3.28;;;20.70;48.90;;;;;;5028566;28;20508;-71
2022/04/22 12:56:16;;;;;;;7.05;3.65;;;20.00;49.20;;;;;;5013085;28;20114;-68
2022/04/22 12:59:02;;;;;;;7.43;5.00;;;19.30;49.80;;;;;;5030995;28;20033;-69
2022/04/22 13:01:34;;;;;;;5.53;3.80;;;18.80;51.70;;;;;;5029695;28;20480;-69
2022/04/22 13:04:00;;;;;;;7.30;3.53;;;18.80;52.20;;;;;;5027256;28;20053;-69
2022/04/22 13:06:40;;;;;;;9.35;3.97;;;18.80;52.40;;;;;;5021084;28;20367;-68
2022/04/22 13:09:07;;;;;;;10.43;4.78;;;19.00;53.40;;;;;;5029033;28;20127;-69
2022/04/22 13:11:36;;;;;;;9.40;4.28;;;19.00;52.90;;;;;;5027892;28;20443;-69
2022/04/22 13:14:03;;;;;;;8.52;4.30;;;19.50;53.10;;;;;;5029367;28;20481;-75
2022/04/22 13:16:29;;;;;;;11.10;4.45;;;20.00;52.20;;;;;;5026714;28;20044;-68
2022/04/22 13:18:58;;;;;;;8.15;4.63;;;20.00;51.80;;;;;;5026227;28;20053;-69
2022/04/22 13:21:24;;;;;;;7.68;4.68;;;20.10;50.80;;;;;;5023429;28;20053;-71
2022/04/22 13:23:50;;;;;;;8.05;4.65;;;20.30;50.10;;;;;;5026847;28;20055;-72
2022/04/22 13:26:17;;;;;;;6.85;4.57;;;20.20;51.20;;;;;;5028846;28;20037;-69
2022/04/22 13:28:43;;;;;;;7.68;4.82;;;20.00;51.60;;;;;;5030343;28;20089;-69
2022/04/22 13:31:09;;;;;;;7.97;4.82;;;19.80;51.40;;;;;;5012815;28;20089;-68
2022/04/22 13:33:35;;;;;;;9.68;5.03;;;19.20;51.70;;;;;;5029811;28;20057;-68
2022/04/22 13:36:05;;;;;;;10.27;4.90;;;18.80;52.80;;;;;;5028110;28;20053;-69
2022/04/22 13:38:32;;;;;;;10.18;4.88;;;18.70;53.80;;;;;;5027487;28;20091;-67
2022/04/22 13:41:01;;;;;;;6.78;4.65;;;18.50;54.20;;;;;;5027897;28;20076;-69
2022/04/22 13:43:30;;;;;;;7.28;4.90;;;18.50;55.00;;;;;;5026915;28;20045;-67
2022/04/22 13:54:13;;;;;;;;;;;18.70;53.60;;;;;;5027035;28;20084;-68
2022/04/22 13:56:39;;;;;;;7.85;4.57;;;18.90;55.00;;;;;;5028714;28;19980;-69
2022/04/22 13:59:04;;;;;;;11.63;5.45;;;19.00;54.00;;;;;;5028451;28;20041;-72
2022/04/22 14:01:30;;;;;;;5.93;4.90;;;18.70;54.00;;;;;;5026794;28;20053;-71
2022/04/22 14:03:56;;;;;;;8.90;4.68;;;18.70;55.10;;;;;;5023110;28;20053;-69
2022/04/22 14:06:22;;;;;;;12.13;5.82;;;18.50;54.30;;;;;;5011917;28;20037;-69
2022/04/22 14:08:48;;;;;;;8.20;5.22;;;18.30;55.40;;;;;;5029275;28;20436;-70
2022/04/22 14:11:14;;;;;;;7.75;4.97;;;18.00;56.10;;;;;;5027077;28;20048;-71